createdAt,value
2022-08-03T00:01:49.168Z,86.92
2022-08-03T00:04:18.803Z,87.04
2022-08-03T00:06:49.856Z,86.85
2022-08-03T00:09:18.954Z,86.80
2022-08-03T00:11:50.319Z,87.03
2022-08-03T00:14:23.003Z,86.91
2022-08-03T00:16:52.596Z,86.86
2022-08-03T00:19:21.264Z,86.98
2022-08-03T00:21:49.993Z,86.98
2022-08-03T00:24:21.093Z,86.91
2022-08-03T00:26:49.786Z,86.85
2022-08-03T00:29:18.571Z,87.03
2022-08-03T00:32:00.522Z,87.03
2022-08-03T00:34:57.337Z,87.04
2022-08-03T00:37:21.713Z,87.14
2022-08-03T00:40:14.182Z,87.17
2022-08-03T00:42:53.313Z,87.25
2022-08-03T00:45:25.273Z,87.67
2022-08-03T00:47:55.590Z,87.46
2022-08-03T00:50:25.874Z,87.34
2022-08-03T00:52:57.359Z,87.32
2022-08-03T00:55:26.972Z,87.40
2022-08-03T00:57:56.783Z,87.34
2022-08-03T01:00:27.743Z,87.38
2022-08-03T01:02:56.435Z,87.35
2022-08-03T01:05:25.459Z,87.39
2022-08-03T01:08:05.780Z,87.38
2022-08-03T01:10:45.687Z,87.37
2022-08-03T01:14:01.685Z,87.50
2022-08-03T01:16:19.461Z,87.67
2022-08-03T01:18:55.598Z,87.64
2022-08-03T01:21:31.966Z,87.72
2022-08-03T01:24:27.303Z,87.86
2022-08-03T01:27:17.986Z,87.64
2022-08-03T01:30:13.165Z,87.90
2022-08-03T01:32:59.658Z,87.98
2022-08-03T01:35:38.460Z,88.07
2022-08-03T01:38:15.673Z,88.22
2022-08-03T01:40:46.875Z,88.44
2022-08-03T01:44:26.925Z,88.48
2022-08-03T01:46:12.894Z,88.22
2022-08-03T01:48:46.413Z,88.42
2022-08-03T01:51:18.598Z,88.24
2022-08-03T01:53:48.482Z,88.43
2022-08-03T01:56:17.908Z,89.01
2022-08-03T01:58:49.873Z,88.97
2022-08-03T02:01:20.632Z,88.76
2022-08-03T02:04:00.413Z,88.61
2022-08-03T02:06:59.958Z,88.66
2022-08-03T02:09:29.468Z,88.57
2022-08-03T02:12:01.441Z,89.02
2022-08-03T02:14:31.318Z,89.17
2022-08-03T02:17:04.551Z,89.31
2022-08-03T02:19:35.851Z,89.25
2022-08-03T02:22:08.384Z,89.18
2022-08-03T02:24:37.471Z,89.02
2022-08-03T02:27:14.477Z,88.81
2022-08-03T02:29:46.489Z,88.52
2022-08-03T02:32:23.224Z,88.69
2022-08-03T02:34:54.739Z,88.57
2022-08-03T02:37:34.145Z,88.41
2022-08-03T02:40:07.660Z,88.42
2022-08-03T02:42:38.704Z,88.46
2022-08-03T02:45:13.516Z,88.51
2022-08-03T02:47:53.960Z,88.71
2022-08-03T02:50:25.894Z,88.65
2022-08-03T02:52:57.134Z,88.65
2022-08-03T02:55:27.304Z,88.80
2022-08-03T02:57:57.634Z,88.57
2022-08-03T03:00:33.882Z,88.75
2022-08-03T03:03:06.022Z,88.64
2022-08-03T03:05:53.566Z,88.64
2022-08-03T03:08:28.687Z,88.75
2022-08-03T03:11:01.563Z,88.88
2022-08-03T03:13:31.351Z,88.89
2022-08-03T03:16:07.130Z,89.06
2022-08-03T03:18:43.143Z,89.02
2022-08-03T03:21:20.512Z,88.93
2022-08-03T03:23:50.652Z,88.95
2022-08-03T03:26:19.687Z,89.07
2022-08-03T03:28:48.583Z,89.20
2022-08-03T03:31:19.232Z,89.39
2022-08-03T03:33:48.795Z,89.52
2022-08-03T03:36:18.684Z,89.47
2022-08-03T03:38:47.379Z,89.57
2022-08-03T03:41:16.178Z,89.55
2022-08-03T03:43:45.365Z,89.67
2022-08-03T03:46:14.421Z,89.70
2022-08-03T03:48:44.034Z,89.72
2022-08-03T03:51:13.268Z,89.88
2022-08-03T03:53:53.677Z,90.09
2022-08-03T03:56:24.382Z,90.13
2022-08-03T03:58:54.721Z,90.23
2022-08-03T04:01:24.143Z,90.22
2022-08-03T04:03:52.659Z,90.26
2022-08-03T04:06:39.999Z,90.34
2022-08-03T04:09:31.037Z,90.47
2022-08-03T04:12:02.836Z,90.60
2022-08-03T04:14:41.639Z,90.33
2022-08-03T04:17:14.200Z,90.33
2022-08-03T04:19:47.435Z,90.31
2022-08-03T04:22:26.288Z,89.98
2022-08-03T04:25:02.479Z,89.73
2022-08-03T04:27:36.369Z,89.37
2022-08-03T04:30:05.566Z,89.13
2022-08-03T04:32:35.713Z,89.27
2022-08-03T04:35:06.722Z,89.02
2022-08-03T04:37:42.637Z,88.87
2022-08-03T04:40:22.802Z,88.62
2022-08-03T04:42:53.725Z,88.13
2022-08-03T04:45:24.409Z,88.12
2022-08-03T04:47:53.720Z,88.11
2022-08-03T04:50:23.883Z,87.87
2022-08-03T04:53:11.074Z,87.76
2022-08-03T04:55:39.597Z,87.39
2022-08-03T04:58:08.083Z,87.46
2022-08-03T05:00:38.816Z,87.46
2022-08-03T05:03:20.327Z,87.35
2022-08-03T05:05:53.531Z,87.51
2022-08-03T05:08:31.141Z,87.34
2022-08-03T05:11:05.748Z,86.85
2022-08-03T05:13:34.333Z,86.89
2022-08-03T05:16:08.403Z,86.87
2022-08-03T05:18:37.333Z,86.74
2022-08-03T05:21:06.641Z,86.74
2022-08-03T05:23:35.603Z,86.43
2022-08-03T05:26:05.631Z,86.46
2022-08-03T05:28:34.218Z,86.63
2022-08-03T05:31:06.078Z,86.07
2022-08-03T05:33:35.603Z,86.18
2022-08-03T05:36:05.421Z,86.47
2022-08-03T05:38:35.414Z,87.16
2022-08-03T05:41:22.614Z,85.52
2022-08-03T05:43:55.983Z,84.71
2022-08-03T05:46:24.842Z,84.28
2022-08-03T05:48:53.578Z,84.14
2022-08-03T05:51:22.322Z,84.32
2022-08-03T05:53:50.881Z,83.61
2022-08-03T05:56:23.886Z,83.01
2022-08-03T05:58:52.950Z,83.13
2022-08-03T06:01:22.216Z,83.22
2022-08-03T06:03:51.928Z,83.30
2022-08-03T06:06:20.643Z,83.01
2022-08-03T06:08:49.276Z,82.79
2022-08-03T06:11:18.362Z,82.74
2022-08-03T06:13:47.046Z,82.99
2022-08-03T06:16:15.672Z,82.20
2022-08-03T06:18:45.487Z,81.67
2022-08-03T06:21:16.317Z,78.49
2022-08-03T06:23:53.485Z,76.67
2022-08-03T06:26:28.302Z,76.31
2022-08-03T06:28:57.990Z,75.66
2022-08-03T06:31:32.290Z,75.68
2022-08-03T06:34:33.596Z,75.71
2022-08-03T06:37:01.300Z,75.63
2022-08-03T06:39:31.168Z,75.63
2022-08-03T06:41:59.623Z,75.93
2022-08-03T06:44:28.349Z,76.63
2022-08-03T06:46:58.186Z,77.90
2022-08-03T06:49:28.146Z,77.88
2022-08-03T06:52:05.314Z,76.42
2022-08-03T06:54:36.537Z,76.63
2022-08-03T06:57:07.628Z,76.37
2022-08-03T07:00:07.918Z,78.45
2022-08-03T07:02:28.148Z,76.42
2022-08-03T07:04:57.691Z,74.83
2022-08-03T07:07:26.351Z,75.84
2022-08-03T07:09:57.598Z,75.78
2022-08-03T07:12:28.945Z,76.34
2022-08-03T07:15:01.615Z,73.81
2022-08-03T07:17:30.665Z,75.90
2022-08-03T07:19:59.924Z,72.27
2022-08-03T07:22:29.740Z,72.69
2022-08-03T07:24:58.822Z,71.17
2022-08-03T07:27:29.342Z,70.65
2022-08-03T07:29:58.326Z,70.75
2022-08-03T07:32:27.916Z,72.42
2022-08-03T07:35:00.565Z,70.38
2022-08-03T07:37:31.271Z,68.49
2022-08-03T07:40:01.800Z,69.26
2022-08-03T07:42:31.770Z,68.04
2022-08-03T07:45:03.069Z,68.75
2022-08-03T07:47:35.628Z,67.99
2022-08-03T07:50:08.896Z,68.23
2022-08-03T07:52:50.988Z,66.14
2022-08-03T07:55:24.599Z,66.92
2022-08-03T07:58:07.103Z,67.69
2022-08-03T08:00:36.445Z,64.94
2022-08-03T08:03:05.867Z,63.17
2022-08-03T08:05:34.806Z,60.40
2022-08-03T08:08:05.660Z,62.61
2022-08-03T08:10:35.126Z,61.42
2022-08-03T08:13:05.095Z,59.04
2022-08-03T08:15:33.817Z,62.53
2022-08-03T08:18:04.626Z,60.45
2022-08-03T08:20:38.029Z,60.41
2022-08-03T08:23:22.312Z,60.86
2022-08-03T08:25:56.927Z,58.40
2022-08-03T08:28:32.855Z,62.04
2022-08-03T08:31:02.893Z,62.54
2022-08-03T08:34:03.531Z,61.03
2022-08-03T08:36:23.566Z,62.94
2022-08-03T08:38:52.693Z,62.95
2022-08-03T08:41:21.295Z,63.65
2022-08-03T08:43:49.991Z,62.97
2022-08-03T08:46:23.808Z,61.23
2022-08-03T08:48:54.001Z,61.72
2022-08-03T08:51:59.619Z,62.99
2022-08-03T08:54:18.093Z,61.47
2022-08-03T08:56:49.348Z,64.12
2022-08-03T08:59:18.387Z,59.31
2022-08-03T09:01:47.023Z,59.17
2022-08-03T09:04:16.010Z,56.66
2022-08-03T09:06:58.873Z,53.66
2022-08-03T09:10:12.014Z,55.85
2022-08-03T09:12:40.921Z,53.14
2022-08-03T09:15:23.313Z,53.30
2022-08-03T09:17:53.899Z,49.90
2022-08-03T09:20:25.489Z,47.40
2022-08-03T09:22:56.949Z,50.98
2022-08-03T09:25:31.298Z,49.67
2022-08-03T09:28:53.889Z,47.22
2022-08-03T09:31:08.684Z,46.32
2022-08-03T09:33:46.280Z,47.96
2022-08-03T09:36:37.031Z,44.20
2022-08-03T09:39:10.389Z,45.29
2022-08-03T09:41:41.572Z,44.20
2022-08-03T09:44:25.314Z,45.86
2022-08-03T09:46:56.450Z,41.71
2022-08-03T09:49:25.589Z,43.01
2022-08-03T09:52:32.116Z,42.28
2022-08-03T09:54:44.931Z,41.85
2022-08-03T09:57:24.816Z,42.12
2022-08-03T10:00:03.122Z,40.22
2022-08-03T10:02:42.646Z,44.40
2022-08-03T10:05:17.597Z,40.72
2022-08-03T10:07:50.544Z,39.69
2022-08-03T10:10:31.382Z,39.69
2022-08-03T10:13:02.790Z,40.48
2022-08-03T10:16:22.328Z,38.60
2022-08-03T10:18:20.685Z,38.76
2022-08-03T10:20:55.221Z,37.95
2022-08-03T10:23:25.212Z,39.25
2022-08-03T10:26:04.514Z,37.86
2022-08-03T10:28:41.574Z,40.38
2022-08-03T10:31:14.411Z,39.80
2022-08-03T10:33:51.568Z,36.41
2022-08-03T10:36:24.584Z,36.43
2022-08-03T10:38:54.673Z,36.23
2022-08-03T10:41:30.997Z,37.26
2022-08-03T10:44:07.012Z,36.29
2022-08-03T10:46:42.809Z,37.85
2022-08-03T10:49:15.045Z,36.52
2022-08-03T10:51:45.870Z,36.67
2022-08-03T10:55:03.336Z,36.31
2022-08-03T10:57:50.124Z,37.31
2022-08-03T11:00:23.696Z,36.68
2022-08-03T11:03:08.137Z,37.49
2022-08-03T11:05:39.953Z,37.02
2022-08-03T11:08:27.760Z,35.31
2022-08-03T11:10:59.065Z,35.68
2022-08-03T11:13:31.313Z,38.19
2022-08-03T11:16:02.979Z,39.66
2022-08-03T11:18:33.664Z,36.56
2022-08-03T11:21:05.248Z,38.24
2022-08-03T11:24:04.235Z,36.88
2022-08-03T11:26:35.108Z,36.01
2022-08-03T11:29:31.040Z,39.00
2022-08-03T11:31:59.995Z,37.04
2022-08-03T11:34:28.502Z,38.13
2022-08-03T11:37:31.540Z,37.57
2022-08-03T11:40:04.711Z,36.87
2022-08-03T11:42:43.669Z,37.07
2022-08-03T11:45:15.008Z,37.80
2022-08-03T11:47:51.022Z,39.19
2022-08-03T11:50:24.149Z,36.81
2022-08-03T11:52:54.423Z,37.91
2022-08-03T11:55:23.748Z,37.53
2022-08-03T11:59:18.813Z,39.80
2022-08-03T12:00:47.622Z,37.18
2022-08-03T12:03:17.820Z,36.48
2022-08-03T12:05:52.312Z,38.46
2022-08-03T12:08:32.713Z,39.32
2022-08-03T12:11:06.416Z,37.39
2022-08-03T12:14:45.266Z,37.10
2022-08-03T12:16:28.398Z,39.03
2022-08-03T12:18:58.820Z,38.02
2022-08-03T12:21:28.066Z,38.22
2022-08-03T12:24:01.810Z,37.69
2022-08-03T12:26:44.337Z,36.17
2022-08-03T12:29:27.989Z,37.32
2022-08-03T12:31:57.163Z,38.21
2022-08-03T12:34:47.489Z,39.93
2022-08-03T12:37:22.492Z,37.21
2022-08-03T12:40:00.488Z,38.24
2022-08-03T12:42:34.953Z,37.90
2022-08-03T12:45:22.407Z,38.31
2022-08-03T12:47:53.032Z,36.79
2022-08-03T12:50:27.454Z,38.64
2022-08-03T12:52:56.428Z,36.85
2022-08-03T12:55:33.120Z,36.37
2022-08-03T12:58:36.222Z,36.34
2022-08-03T13:01:09.746Z,37.52
2022-08-03T13:03:45.740Z,37.09
2022-08-03T13:06:20.821Z,38.48
2022-08-03T13:08:51.248Z,38.08
2022-08-03T13:11:53.534Z,36.99
2022-08-03T13:14:19.687Z,38.28
2022-08-03T13:16:49.590Z,38.30
2022-08-03T13:19:18.478Z,38.58
2022-08-03T13:22:01.732Z,38.72
2022-08-03T13:24:33.771Z,37.66
2022-08-03T13:27:59.411Z,40.50
2022-08-03T13:29:53.391Z,40.58
2022-08-03T13:32:22.772Z,40.08
2022-08-03T13:34:51.447Z,39.26
2022-08-03T13:37:20.255Z,40.32
2022-08-03T13:39:59.573Z,41.26
2022-08-03T13:42:31.343Z,38.83
2022-08-03T13:45:00.538Z,38.86
2022-08-03T13:47:29.778Z,39.35
2022-08-03T13:50:01.468Z,39.67
2022-08-03T13:52:31.759Z,40.64
2022-08-03T13:55:01.207Z,40.16
2022-08-03T13:58:04.251Z,39.32
2022-08-03T14:00:27.657Z,39.17
2022-08-03T14:03:13.101Z,39.31
2022-08-03T14:05:43.714Z,39.00
2022-08-03T14:08:12.795Z,39.63
2022-08-03T14:10:43.729Z,38.42
2022-08-03T14:13:17.536Z,38.78
2022-08-03T14:15:49.870Z,38.71
2022-08-03T14:18:27.688Z,37.32
2022-08-03T14:21:03.398Z,38.11
2022-08-03T14:23:35.203Z,40.09
2022-08-03T14:26:05.984Z,37.72
2022-08-03T14:28:35.267Z,38.57
2022-08-03T14:31:08.552Z,39.55
2022-08-03T14:33:55.155Z,38.59
2022-08-03T14:36:23.744Z,38.89
2022-08-03T14:38:52.348Z,39.32
2022-08-03T14:41:20.999Z,39.29
2022-08-03T14:44:01.163Z,39.88
2022-08-03T14:46:31.849Z,40.58
2022-08-03T14:50:34.938Z,40.03
2022-08-03T14:51:51.417Z,39.94
2022-08-03T14:54:23.786Z,39.55
2022-08-03T14:56:53.334Z,39.46
2022-08-03T14:59:22.032Z,40.75
2022-08-03T15:02:04.587Z,40.33
2022-08-03T15:04:35.176Z,39.31
2022-08-03T15:07:04.505Z,40.40
2022-08-03T15:09:33.168Z,42.60
2022-08-03T15:12:01.767Z,42.12
2022-08-03T15:14:38.725Z,41.92
2022-08-03T15:17:07.753Z,42.42
2022-08-03T15:20:02.164Z,42.77
2022-08-03T15:22:25.452Z,43.61
2022-08-03T15:26:03.990Z,44.26
2022-08-03T15:28:02.771Z,43.40
2022-08-03T15:30:35.502Z,44.07
2022-08-03T15:33:06.728Z,44.25
2022-08-03T15:35:35.706Z,44.84
2022-08-03T15:38:09.612Z,44.64
2022-08-03T15:40:38.513Z,45.95
2022-08-03T15:43:07.476Z,47.69
2022-08-03T15:45:36.596Z,46.90
2022-08-03T15:48:06.807Z,46.11
2022-08-03T15:50:35.646Z,46.49
2022-08-03T15:53:06.746Z,47.39
2022-08-03T15:55:35.514Z,48.08
2022-08-03T15:59:04.737Z,49.75
2022-08-03T16:00:54.121Z,53.61
2022-08-03T16:03:22.636Z,50.57
2022-08-03T16:05:51.576Z,49.41
2022-08-03T16:08:20.947Z,49.18
2022-08-03T16:10:49.565Z,51.14
2022-08-03T16:13:18.920Z,50.10
2022-08-03T16:15:48.402Z,47.80
2022-08-03T16:18:17.369Z,48.19
2022-08-03T16:20:46.300Z,49.68
2022-08-03T16:23:17.955Z,51.36
2022-08-03T16:25:49.061Z,48.29
2022-08-03T16:28:19.031Z,51.00
2022-08-03T16:30:47.934Z,48.44
2022-08-03T16:33:17.800Z,49.81
2022-08-03T16:35:49.095Z,50.17
2022-08-03T16:38:19.323Z,50.53
2022-08-03T16:40:51.423Z,51.16
2022-08-03T16:43:21.955Z,51.07
2022-08-03T16:45:50.646Z,51.55
2022-08-03T16:48:19.683Z,52.47
2022-08-03T16:50:49.879Z,53.02
2022-08-03T16:53:18.684Z,54.25
2022-08-03T16:56:06.720Z,53.27
2022-08-03T16:58:42.488Z,52.90
2022-08-03T17:01:22.216Z,54.30
2022-08-03T17:04:01.698Z,55.33
2022-08-03T17:06:37.776Z,53.13
2022-08-03T17:09:08.859Z,51.90
2022-08-03T17:11:46.655Z,53.23
2022-08-03T17:14:22.089Z,54.85
2022-08-03T17:16:54.344Z,56.22
2022-08-03T17:19:25.849Z,55.15
2022-08-03T17:22:01.403Z,54.53
2022-08-03T17:24:33.925Z,55.63
2022-08-03T17:27:08.954Z,56.19
2022-08-03T17:29:45.014Z,59.87
2022-08-03T17:32:18.339Z,57.94
2022-08-03T17:34:50.429Z,58.33
2022-08-03T17:37:50.744Z,58.94
2022-08-03T17:40:17.630Z,59.76
2022-08-03T17:42:50.840Z,60.01
2022-08-03T17:45:20.856Z,60.88
2022-08-03T17:47:56.962Z,59.69
2022-08-03T17:50:37.281Z,62.37
2022-08-03T17:53:23.835Z,61.36
2022-08-03T17:56:44.683Z,62.43
2022-08-03T17:59:13.700Z,62.61
2022-08-03T18:02:29.544Z,64.08
2022-08-03T18:05:16.818Z,64.57
2022-08-03T18:07:50.347Z,64.96
2022-08-03T18:10:34.086Z,65.51
2022-08-03T18:13:10.224Z,65.67
2022-08-03T18:15:43.290Z,65.34
2022-08-03T18:18:16.361Z,65.78
2022-08-03T18:21:01.146Z,64.73
2022-08-03T18:23:37.282Z,64.47
2022-08-03T18:29:00.285Z,65.50
2022-08-03T18:32:03.580Z,66.54
2022-08-03T18:34:32.990Z,65.83
2022-08-03T18:37:07.838Z,65.94
2022-08-03T18:39:39.019Z,65.56
2022-08-03T18:42:25.827Z,66.54
2022-08-03T18:44:57.006Z,66.14
2022-08-03T18:47:52.994Z,66.49
2022-08-03T18:50:28.796Z,67.67
2022-08-03T18:53:15.534Z,67.89
2022-08-03T18:56:02.380Z,68.85
2022-08-03T18:58:46.680Z,69.14
2022-08-03T19:01:59.692Z,69.46
2022-08-03T19:04:25.274Z,69.84
2022-08-03T19:07:07.871Z,70.24
2022-08-03T19:09:46.918Z,70.87
2022-08-03T19:12:27.268Z,69.43
2022-08-03T19:15:05.411Z,70.14
2022-08-03T19:17:40.200Z,70.70
2022-08-03T19:20:13.681Z,70.60
2022-08-03T19:22:47.535Z,71.37
2022-08-03T19:25:17.339Z,70.88
2022-08-03T19:27:48.100Z,71.62
2022-08-03T19:30:38.944Z,71.29
2022-08-03T19:33:10.210Z,71.18
2022-08-03T19:35:51.338Z,72.27
2022-08-03T19:38:28.739Z,71.06
2022-08-03T19:41:01.622Z,71.42
2022-08-03T19:43:53.357Z,72.42
2022-08-03T19:46:30.432Z,73.64
2022-08-03T19:49:14.613Z,72.73
2022-08-03T19:51:58.480Z,73.82
2022-08-03T19:54:45.825Z,73.34
2022-08-03T19:57:25.308Z,73.65
2022-08-03T19:59:55.739Z,74.08
2022-08-03T20:02:26.089Z,74.14
2022-08-03T20:04:57.457Z,74.40
2022-08-03T20:07:27.876Z,74.40
2022-08-03T20:09:57.067Z,74.96
2022-08-03T20:12:28.597Z,75.00
2022-08-03T20:14:58.495Z,75.48
2022-08-03T20:17:56.125Z,74.97
2022-08-03T20:20:20.069Z,75.04
2022-08-03T20:22:57.660Z,75.52
2022-08-03T20:25:38.516Z,75.40
2022-08-03T20:28:13.911Z,75.00
2022-08-03T20:30:47.414Z,74.68
2022-08-03T20:33:18.973Z,75.01
2022-08-03T20:35:49.795Z,76.15
2022-08-03T20:38:19.684Z,76.10
2022-08-03T20:40:49.122Z,76.66
2022-08-03T20:43:20.068Z,76.33
2022-08-03T20:46:01.138Z,77.20
2022-08-03T20:48:38.032Z,77.47
2022-08-03T20:51:19.349Z,77.68
2022-08-03T20:53:59.538Z,77.81
2022-08-03T20:56:33.509Z,77.97
2022-08-03T20:59:04.417Z,78.16
2022-08-03T21:01:36.136Z,78.09
2022-08-03T21:04:23.058Z,78.22
2022-08-03T21:07:00.414Z,78.53
2022-08-03T21:09:39.990Z,78.22
2022-08-03T21:12:17.963Z,78.76
2022-08-03T21:13:04.791Z,64.95
2022-08-03T21:14:55.793Z,78.62
2022-08-03T21:17:40.064Z,78.92
2022-08-03T21:20:17.476Z,79.01
2022-08-03T21:22:54.965Z,79.37
2022-08-03T21:25:26.679Z,79.47
2022-08-03T21:27:58.593Z,79.53
2022-08-03T21:30:29.877Z,79.93
2022-08-03T21:32:58.808Z,79.95
2022-08-03T21:35:27.782Z,79.86
2022-08-03T21:38:16.924Z,79.57
2022-08-03T21:40:46.132Z,79.91
2022-08-03T21:43:14.776Z,79.87
2022-08-03T21:45:48.416Z,79.69
2022-08-03T21:48:17.910Z,79.83
2022-08-03T21:50:51.184Z,79.83
2022-08-03T21:53:22.384Z,79.50
2022-08-03T21:55:56.882Z,79.40
2022-08-03T21:58:30.794Z,79.45
2022-08-03T22:00:59.471Z,77.60
2022-08-03T22:03:29.371Z,79.31
2022-08-03T22:06:05.116Z,79.45
2022-08-03T22:08:35.335Z,79.72
2022-08-03T22:11:06.587Z,79.32
2022-08-03T22:13:44.094Z,79.47
2022-08-03T22:16:14.466Z,79.38
2022-08-03T22:18:45.704Z,79.00
2022-08-03T22:21:16.900Z,79.08
2022-08-03T22:24:00.129Z,79.89
2022-08-03T22:26:34.963Z,79.37
2022-08-03T22:29:07.903Z,79.20
2022-08-03T22:31:58.189Z,78.99
2022-08-03T22:34:31.261Z,78.57
2022-08-03T22:37:03.971Z,77.75
2022-08-03T22:39:33.465Z,78.46
2022-08-03T22:42:06.658Z,77.99
2022-08-03T22:44:39.713Z,77.93
2022-08-03T22:47:10.365Z,77.30
2022-08-03T22:49:45.174Z,77.16
2022-08-03T22:52:14.759Z,77.08
2022-08-03T22:54:43.797Z,77.10
2022-08-03T22:57:14.030Z,77.38
2022-08-03T22:59:46.706Z,77.34
2022-08-03T23:02:20.982Z,77.65
2022-08-03T23:04:52.867Z,77.06
2022-08-03T23:07:27.493Z,77.64
2022-08-03T23:09:57.526Z,77.02
2022-08-03T23:12:26.780Z,77.30
2022-08-03T23:15:05.406Z,77.20
2022-08-03T23:17:57.591Z,77.37
2022-08-03T23:20:29.093Z,77.32
2022-08-03T23:22:58.347Z,77.37
2022-08-03T23:25:27.621Z,77.68
2022-08-03T23:28:04.821Z,78.05
2022-08-03T23:30:37.152Z,78.46
2022-08-03T23:33:11.442Z,78.72
2022-08-03T23:36:29.113Z,78.68
2022-08-03T23:38:49.240Z,78.78
2022-08-03T23:41:20.021Z,79.18
2022-08-03T23:43:52.347Z,79.43
2022-08-03T23:46:24.005Z,79.80
2022-08-03T23:48:56.555Z,79.67
2022-08-03T23:51:36.008Z,79.91
2022-08-03T23:54:19.954Z,80.16
2022-08-03T23:56:55.058Z,80.28
2022-08-03T23:59:38.817Z,80.52
